sensor_id;sensor_type;location;lat;lon;timestamp;P1;durP1;ratioP1;P2;durP2;ratioP2
17251;SDS011;8742;51.716;8.790;2022-09-30T00:00:31;11.33;;;7.00;;
17251;SDS011;8742;51.716;8.790;2022-09-30T00:02:58;7.60;;;6.13;;
17251;SDS011;8742;51.716;8.790;2022-09-30T00:05:25;10.03;;;6.60;;
17251;SDS011;8742;51.716;8.790;2022-09-30T00:07:52;12.83;;;6.50;;
17251;SDS011;8742;51.716;8.790;2022-09-30T00:10:20;10.57;;;6.30;;
17251;SDS011;8742;51.716;8.790;2022-09-30T00:12:49;11.60;;;6.27;;
17251;SDS011;8742;51.716;8.790;2022-09-30T00:15:16;8.40;;;6.30;;
17251;SDS011;8742;51.716;8.790;2022-09-30T00:17:44;11.07;;;6.10;;
17251;SDS011;8742;51.716;8.790;2022-09-30T00:20:11;12.17;;;6.27;;
17251;SDS011;8742;51.716;8.790;2022-09-30T00:22:38;12.57;;;6.10;;
17251;SDS011;8742;51.716;8.790;2022-09-30T00:25:05;10.90;;;6.83;;
17251;SDS011;8742;51.716;8.790;2022-09-30T00:27:34;8.93;;;6.83;;
17251;SDS011;8742;51.716;8.790;2022-09-30T00:30:01;17.23;;;6.80;;
17251;SDS011;8742;51.716;8.790;2022-09-30T00:32:27;9.07;;;7.20;;
17251;SDS011;8742;51.716;8.790;2022-09-30T00:34:54;8.23;;;6.33;;
17251;SDS011;8742;51.716;8.790;2022-09-30T00:37:21;8.20;;;6.50;;
17251;SDS011;8742;51.716;8.790;2022-09-30T00:39:48;8.80;;;6.57;;
17251;SDS011;8742;51.716;8.790;2022-09-30T00:42:15;10.40;;;6.50;;
17251;SDS011;8742;51.716;8.790;2022-09-30T00:44:46;10.17;;;7.47;;
17251;SDS011;8742;51.716;8.790;2022-09-30T00:47:34;13.30;;;6.67;;
17251;SDS011;8742;51.716;8.790;2022-09-30T00:50:09;8.43;;;6.20;;
17251;SDS011;8742;51.716;8.790;2022-09-30T00:52:41;20.10;;;7.77;;
17251;SDS011;8742;51.716;8.790;2022-09-30T00:55:14;7.57;;;6.13;;
17251;SDS011;8742;51.716;8.790;2022-09-30T00:57:49;10.00;;;7.40;;
17251;SDS011;8742;51.716;8.790;2022-09-30T01:00:18;8.70;;;6.40;;
17251;SDS011;8742;51.716;8.790;2022-09-30T01:02:45;8.63;;;6.57;;
17251;SDS011;8742;51.716;8.790;2022-09-30T01:05:12;10.43;;;7.00;;
17251;SDS011;8742;51.716;8.790;2022-09-30T01:07:39;8.83;;;6.57;;
17251;SDS011;8742;51.716;8.790;2022-09-30T01:10:06;8.53;;;6.37;;
17251;SDS011;8742;51.716;8.790;2022-09-30T01:12:33;11.30;;;6.93;;
17251;SDS011;8742;51.716;8.790;2022-09-30T01:15:00;12.67;;;6.77;;
17251;SDS011;8742;51.716;8.790;2022-09-30T01:17:34;11.17;;;6.67;;
17251;SDS011;8742;51.716;8.790;2022-09-30T01:23:25;9.93;;;6.47;;
17251;SDS011;8742;51.716;8.790;2022-09-30T01:26:31;13.53;;;6.60;;
17251;SDS011;8742;51.716;8.790;2022-09-30T01:32:29;12.10;;;6.57;;
17251;SDS011;8742;51.716;8.790;2022-09-30T01:35:01;10.27;;;6.30;;
17251;SDS011;8742;51.716;8.790;2022-09-30T01:37:41;11.00;;;7.33;;
17251;SDS011;8742;51.716;8.790;2022-09-30T01:40:18;12.00;;;7.10;;
17251;SDS011;8742;51.716;8.790;2022-09-30T01:42:50;13.37;;;7.80;;
17251;SDS011;8742;51.716;8.790;2022-09-30T01:45:24;11.03;;;6.93;;
17251;SDS011;8742;51.716;8.790;2022-09-30T01:48:01;13.03;;;7.60;;
17251;SDS011;8742;51.716;8.790;2022-09-30T01:50:35;12.93;;;7.30;;
17251;SDS011;8742;51.716;8.790;2022-09-30T01:53:09;9.13;;;7.47;;
17251;SDS011;8742;51.716;8.790;2022-09-30T01:55:44;10.27;;;7.17;;
17251;SDS011;8742;51.716;8.790;2022-09-30T01:58:15;10.00;;;6.70;;
17251;SDS011;8742;51.716;8.790;2022-09-30T02:00:48;12.27;;;7.30;;
17251;SDS011;8742;51.716;8.790;2022-09-30T02:03:22;11.50;;;7.57;;
17251;SDS011;8742;51.716;8.790;2022-09-30T02:05:56;9.90;;;6.77;;
17251;SDS011;8742;51.716;8.790;2022-09-30T02:08:28;13.13;;;7.33;;
17251;SDS011;8742;51.716;8.790;2022-09-30T02:11:01;10.20;;;7.10;;
17251;SDS011;8742;51.716;8.790;2022-09-30T02:13:34;10.90;;;7.17;;
17251;SDS011;8742;51.716;8.790;2022-09-30T02:16:07;11.17;;;7.90;;
17251;SDS011;8742;51.716;8.790;2022-09-30T02:18:39;9.50;;;6.87;;
17251;SDS011;8742;51.716;8.790;2022-09-30T02:21:08;8.07;;;7.27;;
17251;SDS011;8742;51.716;8.790;2022-09-30T02:23:41;9.93;;;7.47;;
17251;SDS011;8742;51.716;8.790;2022-09-30T02:26:12;10.13;;;7.37;;
17251;SDS011;8742;51.716;8.790;2022-09-30T02:28:43;10.03;;;7.33;;
17251;SDS011;8742;51.716;8.790;2022-09-30T02:31:14;12.43;;;7.67;;
17251;SDS011;8742;51.716;8.790;2022-09-30T02:33:45;12.80;;;7.87;;
17251;SDS011;8742;51.716;8.790;2022-09-30T02:36:16;13.13;;;7.67;;
17251;SDS011;8742;51.716;8.790;2022-09-30T02:38:47;11.10;;;7.60;;
17251;SDS011;8742;51.716;8.790;2022-09-30T02:41:32;12.87;;;7.53;;
17251;SDS011;8742;51.716;8.790;2022-09-30T02:44:03;13.17;;;8.20;;
17251;SDS011;8742;51.716;8.790;2022-09-30T02:46:33;10.80;;;7.33;;
17251;SDS011;8742;51.716;8.790;2022-09-30T02:49:10;11.90;;;7.97;;
17251;SDS011;8742;51.716;8.790;2022-09-30T02:51:48;13.53;;;8.43;;
17251;SDS011;8742;51.716;8.790;2022-09-30T02:54:28;10.13;;;7.23;;
17251;SDS011;8742;51.716;8.790;2022-09-30T02:57:01;18.03;;;8.17;;
17251;SDS011;8742;51.716;8.790;2022-09-30T02:59:35;22.57;;;8.17;;
17251;SDS011;8742;51.716;8.790;2022-09-30T03:02:02;14.30;;;8.30;;
17251;SDS011;8742;51.716;8.790;2022-09-30T03:04:30;16.47;;;8.40;;
17251;SDS011;8742;51.716;8.790;2022-09-30T03:06:59;12.03;;;8.27;;
17251;SDS011;8742;51.716;8.790;2022-09-30T03:09:27;12.27;;;7.40;;
17251;SDS011;8742;51.716;8.790;2022-09-30T03:11:54;10.87;;;7.63;;
17251;SDS011;8742;51.716;8.790;2022-09-30T03:14:34;13.73;;;7.70;;
17251;SDS011;8742;51.716;8.790;2022-09-30T03:17:23;11.70;;;8.00;;
17251;SDS011;8742;51.716;8.790;2022-09-30T03:20:04;14.23;;;7.17;;
17251;SDS011;8742;51.716;8.790;2022-09-30T03:22:50;13.07;;;7.10;;
17251;SDS011;8742;51.716;8.790;2022-09-30T03:25:30;12.60;;;7.17;;
17251;SDS011;8742;51.716;8.790;2022-09-30T03:28:05;11.40;;;7.77;;
17251;SDS011;8742;51.716;8.790;2022-09-30T03:30:40;11.20;;;7.63;;
17251;SDS011;8742;51.716;8.790;2022-09-30T03:33:15;15.83;;;7.93;;
17251;SDS011;8742;51.716;8.790;2022-09-30T03:35:51;10.23;;;7.77;;
17251;SDS011;8742;51.716;8.790;2022-09-30T03:38:28;10.97;;;7.80;;
17251;SDS011;8742;51.716;8.790;2022-09-30T03:41:04;10.03;;;8.00;;
17251;SDS011;8742;51.716;8.790;2022-09-30T03:43:41;13.23;;;8.00;;
17251;SDS011;8742;51.716;8.790;2022-09-30T03:46:15;10.70;;;7.90;;
17251;SDS011;8742;51.716;8.790;2022-09-30T03:48:46;13.77;;;8.20;;
17251;SDS011;8742;51.716;8.790;2022-09-30T03:51:16;13.23;;;8.10;;
17251;SDS011;8742;51.716;8.790;2022-09-30T03:53:44;12.77;;;8.70;;
17251;SDS011;8742;51.716;8.790;2022-09-30T03:56:11;15.67;;;9.00;;
17251;SDS011;8742;51.716;8.790;2022-09-30T03:58:39;13.17;;;8.40;;
17251;SDS011;8742;51.716;8.790;2022-09-30T04:01:08;12.13;;;9.23;;
17251;SDS011;8742;51.716;8.790;2022-09-30T04:03:43;12.57;;;8.67;;
17251;SDS011;8742;51.716;8.790;2022-09-30T04:06:10;12.40;;;8.20;;
17251;SDS011;8742;51.716;8.790;2022-09-30T04:08:39;18.13;;;8.27;;
17251;SDS011;8742;51.716;8.790;2022-09-30T04:11:06;20.90;;;9.17;;
17251;SDS011;8742;51.716;8.790;2022-09-30T04:13:33;12.83;;;8.77;;
17251;SDS011;8742;51.716;8.790;2022-09-30T04:16:00;16.20;;;9.40;;
17251;SDS011;8742;51.716;8.790;2022-09-30T04:18:27;15.83;;;9.40;;
17251;SDS011;8742;51.716;8.790;2022-09-30T04:20:55;16.83;;;9.47;;
17251;SDS011;8742;51.716;8.790;2022-09-30T04:23:23;11.60;;;8.87;;
17251;SDS011;8742;51.716;8.790;2022-09-30T04:25:54;13.20;;;8.67;;
17251;SDS011;8742;51.716;8.790;2022-09-30T04:28:21;12.17;;;8.17;;
17251;SDS011;8742;51.716;8.790;2022-09-30T04:30:48;11.50;;;8.70;;
17251;SDS011;8742;51.716;8.790;2022-09-30T04:33:15;17.47;;;8.73;;
17251;SDS011;8742;51.716;8.790;2022-09-30T04:35:42;13.43;;;8.73;;
17251;SDS011;8742;51.716;8.790;2022-09-30T04:38:08;12.57;;;8.93;;
17251;SDS011;8742;51.716;8.790;2022-09-30T04:40:35;13.87;;;8.67;;
17251;SDS011;8742;51.716;8.790;2022-09-30T04:43:04;17.80;;;9.00;;
17251;SDS011;8742;51.716;8.790;2022-09-30T04:45:31;12.50;;;8.47;;
17251;SDS011;8742;51.716;8.790;2022-09-30T04:47:58;12.77;;;8.93;;
17251;SDS011;8742;51.716;8.790;2022-09-30T04:50:25;15.10;;;9.30;;
17251;SDS011;8742;51.716;8.790;2022-09-30T04:52:52;13.03;;;9.33;;
17251;SDS011;8742;51.716;8.790;2022-09-30T04:55:20;16.03;;;9.00;;
17251;SDS011;8742;51.716;8.790;2022-09-30T04:57:48;21.03;;;9.37;;
17251;SDS011;8742;51.716;8.790;2022-09-30T05:00:16;15.53;;;9.90;;
17251;SDS011;8742;51.716;8.790;2022-09-30T05:02:44;21.97;;;9.60;;
17251;SDS011;8742;51.716;8.790;2022-09-30T05:05:11;13.10;;;9.30;;
17251;SDS011;8742;51.716;8.790;2022-09-30T05:07:39;14.30;;;9.17;;
17251;SDS011;8742;51.716;8.790;2022-09-30T05:10:06;16.43;;;9.30;;
17251;SDS011;8742;51.716;8.790;2022-09-30T05:12:34;15.03;;;9.47;;
17251;SDS011;8742;51.716;8.790;2022-09-30T05:15:02;19.33;;;9.43;;
17251;SDS011;8742;51.716;8.790;2022-09-30T05:17:30;16.97;;;8.97;;
17251;SDS011;8742;51.716;8.790;2022-09-30T05:19:57;11.90;;;8.77;;
17251;SDS011;8742;51.716;8.790;2022-09-30T05:22:25;12.40;;;8.80;;
17251;SDS011;8742;51.716;8.790;2022-09-30T05:24:53;21.57;;;9.33;;
17251;SDS011;8742;51.716;8.790;2022-09-30T05:27:20;13.20;;;9.13;;
17251;SDS011;8742;51.716;8.790;2022-09-30T05:29:47;20.60;;;9.20;;
17251;SDS011;8742;51.716;8.790;2022-09-30T05:32:14;15.97;;;9.43;;
17251;SDS011;8742;51.716;8.790;2022-09-30T05:34:45;14.73;;;8.70;;
17251;SDS011;8742;51.716;8.790;2022-09-30T05:37:12;14.17;;;8.90;;
17251;SDS011;8742;51.716;8.790;2022-09-30T05:39:39;14.43;;;8.47;;
17251;SDS011;8742;51.716;8.790;2022-09-30T05:42:06;15.63;;;8.60;;
17251;SDS011;8742;51.716;8.790;2022-09-30T05:44:33;15.23;;;9.03;;
17251;SDS011;8742;51.716;8.790;2022-09-30T05:47:00;12.60;;;8.67;;
17251;SDS011;8742;51.716;8.790;2022-09-30T05:49:26;15.57;;;9.30;;
17251;SDS011;8742;51.716;8.790;2022-09-30T05:51:55;13.47;;;8.87;;
17251;SDS011;8742;51.716;8.790;2022-09-30T05:54:21;11.93;;;8.43;;
17251;SDS011;8742;51.716;8.790;2022-09-30T05:56:48;12.67;;;9.03;;
17251;SDS011;8742;51.716;8.790;2022-09-30T05:59:15;13.97;;;9.57;;
17251;SDS011;8742;51.716;8.790;2022-09-30T06:01:42;12.77;;;8.47;;
17251;SDS011;8742;51.716;8.790;2022-09-30T06:04:09;11.30;;;8.63;;
17251;SDS011;8742;51.716;8.790;2022-09-30T06:06:36;15.87;;;8.70;;
17251;SDS011;8742;51.716;8.790;2022-09-30T06:09:05;12.53;;;8.87;;
17251;SDS011;8742;51.716;8.790;2022-09-30T06:11:31;13.10;;;8.83;;
17251;SDS011;8742;51.716;8.790;2022-09-30T06:13:59;12.57;;;8.43;;
17251;SDS011;8742;51.716;8.790;2022-09-30T06:16:26;14.47;;;8.67;;
17251;SDS011;8742;51.716;8.790;2022-09-30T06:18:52;13.27;;;9.23;;
17251;SDS011;8742;51.716;8.790;2022-09-30T06:21:19;15.87;;;9.77;;
17251;SDS011;8742;51.716;8.790;2022-09-30T06:23:46;17.60;;;9.90;;
17251;SDS011;8742;51.716;8.790;2022-09-30T06:26:15;13.00;;;8.27;;
17251;SDS011;8742;51.716;8.790;2022-09-30T06:28:42;12.00;;;8.07;;
17251;SDS011;8742;51.716;8.790;2022-09-30T06:31:09;13.37;;;8.40;;
17251;SDS011;8742;51.716;8.790;2022-09-30T06:33:36;14.20;;;8.13;;
17251;SDS011;8742;51.716;8.790;2022-09-30T06:36:03;19.73;;;8.07;;
17251;SDS011;8742;51.716;8.790;2022-09-30T06:38:31;12.00;;;7.93;;
17251;SDS011;8742;51.716;8.790;2022-09-30T06:40:59;12.57;;;8.70;;
17251;SDS011;8742;51.716;8.790;2022-09-30T06:43:27;14.97;;;8.10;;
17251;SDS011;8742;51.716;8.790;2022-09-30T06:45:54;16.07;;;8.67;;
17251;SDS011;8742;51.716;8.790;2022-09-30T06:48:21;15.30;;;7.90;;
17251;SDS011;8742;51.716;8.790;2022-09-30T06:50:48;18.13;;;9.33;;
17251;SDS011;8742;51.716;8.790;2022-09-30T06:53:17;13.17;;;8.33;;
17251;SDS011;8742;51.716;8.790;2022-09-30T06:55:44;16.33;;;8.73;;
17251;SDS011;8742;51.716;8.790;2022-09-30T06:58:12;11.63;;;9.13;;
17251;SDS011;8742;51.716;8.790;2022-09-30T07:00:42;12.17;;;7.87;;
17251;SDS011;8742;51.716;8.790;2022-09-30T07:03:11;14.77;;;7.80;;
17251;SDS011;8742;51.716;8.790;2022-09-30T07:05:53;14.63;;;7.63;;
17251;SDS011;8742;51.716;8.790;2022-09-30T07:08:22;11.17;;;7.17;;
17251;SDS011;8742;51.716;8.790;2022-09-30T07:10:50;10.10;;;7.57;;
17251;SDS011;8742;51.716;8.790;2022-09-30T07:13:17;15.03;;;7.77;;
17251;SDS011;8742;51.716;8.790;2022-09-30T07:15:45;19.20;;;11.67;;
17251;SDS011;8742;51.716;8.790;2022-09-30T07:18:15;14.97;;;8.00;;
17251;SDS011;8742;51.716;8.790;2022-09-30T07:20:46;15.10;;;7.37;;
17251;SDS011;8742;51.716;8.790;2022-09-30T07:23:13;9.73;;;6.10;;
17251;SDS011;8742;51.716;8.790;2022-09-30T07:25:47;10.33;;;6.50;;
17251;SDS011;8742;51.716;8.790;2022-09-30T07:28:15;8.30;;;6.53;;
17251;SDS011;8742;51.716;8.790;2022-09-30T07:30:41;8.13;;;6.57;;
17251;SDS011;8742;51.716;8.790;2022-09-30T07:33:10;8.27;;;5.87;;
17251;SDS011;8742;51.716;8.790;2022-09-30T07:35:41;12.93;;;7.03;;
17251;SDS011;8742;51.716;8.790;2022-09-30T07:38:15;12.37;;;6.07;;
17251;SDS011;8742;51.716;8.790;2022-09-30T07:40:49;6.63;;;5.67;;
17251;SDS011;8742;51.716;8.790;2022-09-30T07:43:18;22.00;;;6.30;;
17251;SDS011;8742;51.716;8.790;2022-09-30T07:45:45;14.77;;;6.30;;
17251;SDS011;8742;51.716;8.790;2022-09-30T07:48:14;8.80;;;5.43;;
17251;SDS011;8742;51.716;8.790;2022-09-30T07:50:55;9.23;;;5.40;;
17251;SDS011;8742;51.716;8.790;2022-09-30T07:53:22;8.13;;;6.17;;
17251;SDS011;8742;51.716;8.790;2022-09-30T07:55:49;7.47;;;4.67;;
17251;SDS011;8742;51.716;8.790;2022-09-30T07:58:16;6.73;;;5.03;;
17251;SDS011;8742;51.716;8.790;2022-09-30T08:00:45;8.97;;;4.47;;
17251;SDS011;8742;51.716;8.790;2022-09-30T08:03:13;7.37;;;4.97;;
17251;SDS011;8742;51.716;8.790;2022-09-30T08:05:41;7.80;;;4.40;;
17251;SDS011;8742;51.716;8.790;2022-09-30T08:08:09;5.70;;;4.57;;
17251;SDS011;8742;51.716;8.790;2022-09-30T08:10:36;10.97;;;4.83;;
17251;SDS011;8742;51.716;8.790;2022-09-30T08:13:03;6.83;;;4.50;;
17251;SDS011;8742;51.716;8.790;2022-09-30T08:15:30;8.03;;;4.47;;
17251;SDS011;8742;51.716;8.790;2022-09-30T08:17:57;9.90;;;4.97;;
17251;SDS011;8742;51.716;8.790;2022-09-30T08:20:25;8.03;;;4.43;;
17251;SDS011;8742;51.716;8.790;2022-09-30T08:22:52;6.23;;;5.13;;
17251;SDS011;8742;51.716;8.790;2022-09-30T08:25:19;13.93;;;5.07;;
17251;SDS011;8742;51.716;8.790;2022-09-30T08:27:47;6.70;;;4.50;;
17251;SDS011;8742;51.716;8.790;2022-09-30T08:30:14;6.53;;;4.60;;
17251;SDS011;8742;51.716;8.790;2022-09-30T08:32:41;9.30;;;5.17;;
17251;SDS011;8742;51.716;8.790;2022-09-30T08:35:08;6.83;;;5.10;;
17251;SDS011;8742;51.716;8.790;2022-09-30T08:37:36;7.57;;;4.97;;
17251;SDS011;8742;51.716;8.790;2022-09-30T08:40:03;8.10;;;5.10;;
17251;SDS011;8742;51.716;8.790;2022-09-30T08:42:37;8.23;;;5.37;;
17251;SDS011;8742;51.716;8.790;2022-09-30T08:45:18;11.77;;;5.30;;
17251;SDS011;8742;51.716;8.790;2022-09-30T08:47:52;9.93;;;6.00;;
17251;SDS011;8742;51.716;8.790;2022-09-30T08:50:27;13.60;;;6.70;;
17251;SDS011;8742;51.716;8.790;2022-09-30T08:53:02;18.00;;;9.70;;
17251;SDS011;8742;51.716;8.790;2022-09-30T08:55:34;21.53;;;11.47;;
17251;SDS011;8742;51.716;8.790;2022-09-30T08:58:06;11.67;;;9.10;;
17251;SDS011;8742;51.716;8.790;2022-09-30T09:00:41;14.60;;;8.10;;
17251;SDS011;8742;51.716;8.790;2022-09-30T09:03:08;15.33;;;9.30;;
17251;SDS011;8742;51.716;8.790;2022-09-30T09:05:42;11.50;;;8.47;;
17251;SDS011;8742;51.716;8.790;2022-09-30T09:08:23;15.77;;;7.97;;
17251;SDS011;8742;51.716;8.790;2022-09-30T09:10:55;18.17;;;8.87;;
17251;SDS011;8742;51.716;8.790;2022-09-30T09:13:35;11.70;;;7.40;;
17251;SDS011;8742;51.716;8.790;2022-09-30T09:16:13;13.70;;;7.37;;
17251;SDS011;8742;51.716;8.790;2022-09-30T09:18:50;12.00;;;7.27;;
17251;SDS011;8742;51.716;8.790;2022-09-30T09:21:26;15.47;;;7.53;;
17251;SDS011;8742;51.716;8.790;2022-09-30T09:24:03;12.87;;;7.57;;
17251;SDS011;8742;51.716;8.790;2022-09-30T09:26:37;10.57;;;6.90;;
17251;SDS011;8742;51.716;8.790;2022-09-30T09:29:07;10.10;;;6.70;;
17251;SDS011;8742;51.716;8.790;2022-09-30T09:31:52;11.30;;;6.47;;
17251;SDS011;8742;51.716;8.790;2022-09-30T09:34:22;13.53;;;7.00;;
17251;SDS011;8742;51.716;8.790;2022-09-30T09:36:54;20.73;;;7.50;;
17251;SDS011;8742;51.716;8.790;2022-09-30T09:39:43;10.97;;;7.17;;
17251;SDS011;8742;51.716;8.790;2022-09-30T09:42:27;10.53;;;6.90;;
17251;SDS011;8742;51.716;8.790;2022-09-30T09:45:03;11.67;;;6.87;;
17251;SDS011;8742;51.716;8.790;2022-09-30T09:47:37;14.83;;;7.03;;
17251;SDS011;8742;51.716;8.790;2022-09-30T09:50:05;11.67;;;6.77;;
17251;SDS011;8742;51.716;8.790;2022-09-30T09:52:48;8.80;;;5.87;;
17251;SDS011;8742;51.716;8.790;2022-09-30T09:55:24;12.70;;;6.90;;
17251;SDS011;8742;51.716;8.790;2022-09-30T09:58:04;9.00;;;6.33;;
17251;SDS011;8742;51.716;8.790;2022-09-30T10:00:32;13.17;;;6.60;;
17251;SDS011;8742;51.716;8.790;2022-09-30T10:03:17;11.03;;;6.37;;
17251;SDS011;8742;51.716;8.790;2022-09-30T10:05:57;8.50;;;6.07;;
17251;SDS011;8742;51.716;8.790;2022-09-30T10:08:26;8.73;;;6.07;;
17251;SDS011;8742;51.716;8.790;2022-09-30T10:10:57;16.10;;;5.70;;
17251;SDS011;8742;51.716;8.790;2022-09-30T10:13:26;14.07;;;6.50;;
17251;SDS011;8742;51.716;8.790;2022-09-30T10:15:55;9.40;;;6.27;;
17251;SDS011;8742;51.716;8.790;2022-09-30T10:18:24;12.53;;;5.80;;
17251;SDS011;8742;51.716;8.790;2022-09-30T10:20:53;8.83;;;5.80;;
17251;SDS011;8742;51.716;8.790;2022-09-30T10:23:25;11.17;;;5.77;;
17251;SDS011;8742;51.716;8.790;2022-09-30T10:25:55;8.13;;;5.30;;
17251;SDS011;8742;51.716;8.790;2022-09-30T10:28:25;10.33;;;5.73;;
17251;SDS011;8742;51.716;8.790;2022-09-30T10:30:55;11.10;;;5.53;;
17251;SDS011;8742;51.716;8.790;2022-09-30T10:33:27;7.50;;;4.50;;
17251;SDS011;8742;51.716;8.790;2022-09-30T10:36:05;7.53;;;4.93;;
17251;SDS011;8742;51.716;8.790;2022-09-30T10:38:35;8.50;;;5.03;;
17251;SDS011;8742;51.716;8.790;2022-09-30T10:41:04;8.67;;;4.83;;
17251;SDS011;8742;51.716;8.790;2022-09-30T10:43:36;8.43;;;4.43;;
17251;SDS011;8742;51.716;8.790;2022-09-30T10:46:07;6.67;;;5.00;;
17251;SDS011;8742;51.716;8.790;2022-09-30T10:48:35;6.20;;;4.63;;
17251;SDS011;8742;51.716;8.790;2022-09-30T10:51:03;9.47;;;5.53;;
17251;SDS011;8742;51.716;8.790;2022-09-30T10:53:32;10.47;;;5.40;;
17251;SDS011;8742;51.716;8.790;2022-09-30T10:56:00;6.17;;;5.00;;
17251;SDS011;8742;51.716;8.790;2022-09-30T10:58:42;8.73;;;4.63;;
17251;SDS011;8742;51.716;8.790;2022-09-30T11:01:18;5.87;;;4.80;;
17251;SDS011;8742;51.716;8.790;2022-09-30T11:03:52;7.70;;;4.60;;
17251;SDS011;8742;51.716;8.790;2022-09-30T11:06:26;6.73;;;4.80;;
17251;SDS011;8742;51.716;8.790;2022-09-30T11:08:58;6.13;;;4.30;;
17251;SDS011;8742;51.716;8.790;2022-09-30T11:11:32;8.33;;;4.63;;
17251;SDS011;8742;51.716;8.790;2022-09-30T11:14:16;8.53;;;4.93;;
17251;SDS011;8742;51.716;8.790;2022-09-30T11:16:51;8.20;;;4.80;;
17251;SDS011;8742;51.716;8.790;2022-09-30T11:19:28;6.90;;;4.77;;
17251;SDS011;8742;51.716;8.790;2022-09-30T11:21:59;10.77;;;5.07;;
17251;SDS011;8742;51.716;8.790;2022-09-30T11:24:39;9.10;;;4.00;;
17251;SDS011;8742;51.716;8.790;2022-09-30T11:27:08;8.57;;;4.23;;
17251;SDS011;8742;51.716;8.790;2022-09-30T11:29:48;9.37;;;5.07;;
17251;SDS011;8742;51.716;8.790;2022-09-30T11:32:35;7.87;;;4.90;;
17251;SDS011;8742;51.716;8.790;2022-09-30T11:35:28;5.33;;;4.20;;
17251;SDS011;8742;51.716;8.790;2022-09-30T11:38:08;5.83;;;4.40;;
17251;SDS011;8742;51.716;8.790;2022-09-30T11:40:43;5.57;;;4.27;;
17251;SDS011;8742;51.716;8.790;2022-09-30T11:43:21;7.50;;;4.97;;
17251;SDS011;8742;51.716;8.790;2022-09-30T11:46:08;8.43;;;4.27;;
17251;SDS011;8742;51.716;8.790;2022-09-30T11:51:57;10.00;;;4.23;;
17251;SDS011;8742;51.716;8.790;2022-09-30T11:54:36;6.63;;;3.97;;
17251;SDS011;8742;51.716;8.790;2022-09-30T11:57:13;4.60;;;3.77;;
17251;SDS011;8742;51.716;8.790;2022-09-30T11:59:45;7.07;;;3.57;;
17251;SDS011;8742;51.716;8.790;2022-09-30T12:02:24;5.90;;;3.50;;
17251;SDS011;8742;51.716;8.790;2022-09-30T12:04:57;3.70;;;3.07;;
17251;SDS011;8742;51.716;8.790;2022-09-30T12:07:32;4.77;;;2.93;;
17251;SDS011;8742;51.716;8.790;2022-09-30T12:10:04;4.47;;;3.23;;
17251;SDS011;8742;51.716;8.790;2022-09-30T12:12:41;4.97;;;3.47;;
17251;SDS011;8742;51.716;8.790;2022-09-30T12:15:12;5.07;;;3.77;;
17251;SDS011;8742;51.716;8.790;2022-09-30T12:17:44;4.67;;;3.23;;
17251;SDS011;8742;51.716;8.790;2022-09-30T12:20:14;5.90;;;3.30;;
17251;SDS011;8742;51.716;8.790;2022-09-30T12:22:46;4.40;;;3.50;;
17251;SDS011;8742;51.716;8.790;2022-09-30T12:25:17;4.07;;;3.67;;
17251;SDS011;8742;51.716;8.790;2022-09-30T12:27:48;4.50;;;3.20;;
17251;SDS011;8742;51.716;8.790;2022-09-30T12:30:22;8.17;;;4.00;;
17251;SDS011;8742;51.716;8.790;2022-09-30T12:33:10;8.73;;;3.73;;
17251;SDS011;8742;51.716;8.790;2022-09-30T12:38:59;9.83;;;3.53;;
17251;SDS011;8742;51.716;8.790;2022-09-30T12:41:49;6.83;;;3.67;;
17251;SDS011;8742;51.716;8.790;2022-09-30T12:47:25;7.97;;;3.17;;
17251;SDS011;8742;51.716;8.790;2022-09-30T12:50:03;4.37;;;2.83;;
17251;SDS011;8742;51.716;8.790;2022-09-30T12:52:33;4.30;;;2.43;;
17251;SDS011;8742;51.716;8.790;2022-09-30T12:55:04;2.53;;;2.27;;
17251;SDS011;8742;51.716;8.790;2022-09-30T12:57:36;5.10;;;2.40;;
17251;SDS011;8742;51.716;8.790;2022-09-30T13:00:12;6.43;;;2.70;;
17251;SDS011;8742;51.716;8.790;2022-09-30T13:02:41;4.27;;;2.30;;
17251;SDS011;8742;51.716;8.790;2022-09-30T13:08:35;3.90;;;2.40;;
17251;SDS011;8742;51.716;8.790;2022-09-30T13:14:02;4.90;;;2.37;;
17251;SDS011;8742;51.716;8.790;2022-09-30T13:20:00;3.03;;;2.33;;
17251;SDS011;8742;51.716;8.790;2022-09-30T13:25:25;8.07;;;2.90;;
17251;SDS011;8742;51.716;8.790;2022-09-30T13:27:53;3.63;;;2.63;;
17251;SDS011;8742;51.716;8.790;2022-09-30T13:30:49;6.17;;;2.50;;
17251;SDS011;8742;51.716;8.790;2022-09-30T13:33:41;23.53;;;8.80;;
17251;SDS011;8742;51.716;8.790;2022-09-30T13:36:17;4.60;;;2.97;;
17251;SDS011;8742;51.716;8.790;2022-09-30T13:39:05;3.27;;;2.73;;
17251;SDS011;8742;51.716;8.790;2022-09-30T13:41:52;4.17;;;2.53;;
17251;SDS011;8742;51.716;8.790;2022-09-30T13:44:29;5.80;;;3.00;;
17251;SDS011;8742;51.716;8.790;2022-09-30T13:46:59;11.77;;;3.47;;
17251;SDS011;8742;51.716;8.790;2022-09-30T13:49:37;4.53;;;2.50;;
17251;SDS011;8742;51.716;8.790;2022-09-30T13:52:07;3.47;;;2.60;;
17251;SDS011;8742;51.716;8.790;2022-09-30T13:54:43;3.03;;;2.37;;
17251;SDS011;8742;51.716;8.790;2022-09-30T13:57:16;5.33;;;2.20;;
17251;SDS011;8742;51.716;8.790;2022-09-30T13:59:49;6.47;;;2.07;;
17251;SDS011;8742;51.716;8.790;2022-09-30T14:05:32;3.90;;;1.80;;
17251;SDS011;8742;51.716;8.790;2022-09-30T14:08:32;2.77;;;1.63;;
17251;SDS011;8742;51.716;8.790;2022-09-30T14:11:16;1.97;;;1.70;;
17251;SDS011;8742;51.716;8.790;2022-09-30T14:17:25;2.50;;;1.67;;
17251;SDS011;8742;51.716;8.790;2022-09-30T14:20:06;1.97;;;1.70;;
17251;SDS011;8742;51.716;8.790;2022-09-30T14:22:44;2.00;;;1.20;;
17251;SDS011;8742;51.716;8.790;2022-09-30T14:25:13;4.00;;;1.30;;
17251;SDS011;8742;51.716;8.790;2022-09-30T14:27:50;1.80;;;1.30;;
17251;SDS011;8742;51.716;8.790;2022-09-30T14:30:28;2.20;;;1.47;;
17251;SDS011;8742;51.716;8.790;2022-09-30T14:33:02;4.03;;;1.30;;
17251;SDS011;8742;51.716;8.790;2022-09-30T14:35:35;5.13;;;1.37;;
17251;SDS011;8742;51.716;8.790;2022-09-30T14:38:06;3.97;;;1.33;;
17251;SDS011;8742;51.716;8.790;2022-09-30T14:40:39;1.20;;;1.20;;
17251;SDS011;8742;51.716;8.790;2022-09-30T14:43:14;3.80;;;1.33;;
17251;SDS011;8742;51.716;8.790;2022-09-30T14:45:45;2.27;;;1.50;;
17251;SDS011;8742;51.716;8.790;2022-09-30T14:48:19;3.67;;;1.23;;
17251;SDS011;8742;51.716;8.790;2022-09-30T14:50:49;3.30;;;1.23;;
17251;SDS011;8742;51.716;8.790;2022-09-30T14:53:24;1.67;;;1.50;;
17251;SDS011;8742;51.716;8.790;2022-09-30T14:55:53;3.67;;;1.77;;
17251;SDS011;8742;51.716;8.790;2022-09-30T14:58:21;2.53;;;1.40;;
17251;SDS011;8742;51.716;8.790;2022-09-30T15:01:04;1.80;;;1.00;;
17251;SDS011;8742;51.716;8.790;2022-09-30T15:03:33;2.30;;;1.20;;
17251;SDS011;8742;51.716;8.790;2022-09-30T15:06:02;4.23;;;1.30;;
17251;SDS011;8742;51.716;8.790;2022-09-30T15:08:29;1.80;;;1.17;;
17251;SDS011;8742;51.716;8.790;2022-09-30T15:10:56;2.23;;;1.30;;
17251;SDS011;8742;51.716;8.790;2022-09-30T15:13:24;1.57;;;0.83;;
17251;SDS011;8742;51.716;8.790;2022-09-30T15:15:55;2.90;;;1.30;;
17251;SDS011;8742;51.716;8.790;2022-09-30T15:18:29;1.23;;;0.90;;
17251;SDS011;8742;51.716;8.790;2022-09-30T15:21:06;2.00;;;1.10;;
17251;SDS011;8742;51.716;8.790;2022-09-30T15:23:35;2.50;;;0.70;;
17251;SDS011;8742;51.716;8.790;2022-09-30T15:26:04;3.00;;;0.93;;
17251;SDS011;8742;51.716;8.790;2022-09-30T15:28:32;1.63;;;1.10;;
17251;SDS011;8742;51.716;8.790;2022-09-30T15:31:00;1.77;;;1.00;;
17251;SDS011;8742;51.716;8.790;2022-09-30T15:33:30;1.30;;;0.83;;
17251;SDS011;8742;51.716;8.790;2022-09-30T15:36:01;2.50;;;0.70;;
17251;SDS011;8742;51.716;8.790;2022-09-30T15:38:30;2.40;;;1.10;;
17251;SDS011;8742;51.716;8.790;2022-09-30T15:41:00;2.13;;;0.83;;
17251;SDS011;8742;51.716;8.790;2022-09-30T15:43:31;4.30;;;1.10;;
17251;SDS011;8742;51.716;8.790;2022-09-30T15:48:51;2.90;;;1.10;;
17251;SDS011;8742;51.716;8.790;2022-09-30T15:56:56;1.20;;;0.80;;
17251;SDS011;8742;51.716;8.790;2022-09-30T16:02:25;0.87;;;0.80;;
17251;SDS011;8742;51.716;8.790;2022-09-30T16:04:54;1.37;;;1.07;;
17251;SDS011;8742;51.716;8.790;2022-09-30T16:07:22;0.73;;;0.73;;